Time;durP1;ratioP1;P1;durP2;ratioP2;P2;SDS_P1;SDS_P2;PMS_P1;PMS_P2;Temp;Humidity;BMP_temperature;BMP_pressure;BME280_temperature;BME280_humidity;BME280_pressure;Samples;Min_cycle;Max_cycle;Signal;HPM_P1;HPM_P2
2022/03/14 00:01:36;;;;;;;17.90;11.53;;;;;;;;;;5012204;28;20427;-49
2022/03/14 00:04:02;;;;;;;17.10;11.30;;;;;;;;;;5012250;28;20422;-47
2022/03/14 00:06:28;;;;;;;21.07;12.77;;;;;;;;;;5012209;28;20759;-47
2022/03/14 00:08:55;;;;;;;19.43;11.50;;;;;;;;;;5025442;28;20465;-49
2022/03/14 00:11:22;;;;;;;20.67;11.87;;;;;;;;;;5018532;28;20465;-47
2022/03/14 00:13:48;;;;;;;17.53;11.13;;;;;;;;;;5012167;28;20985;-47
2022/03/14 00:16:24;;;;;;;16.60;11.60;;;;;;;;;;5012157;28;20936;-46
2022/03/14 00:18:51;;;;;;;17.80;11.33;;;;;;;;;;5012305;28;20743;-47
2022/03/14 00:21:28;;;;;;;20.67;12.70;;;;;;;;;;5011982;28;20425;-47
2022/03/14 00:23:56;;;;;;;18.80;12.23;;;;;;;;;;5012080;28;20399;-46
2022/03/14 00:26:22;;;;;;;18.93;12.90;;;;;;;;;;5012096;28;20403;-47
2022/03/14 00:28:49;;;;;;;21.77;13.23;;;;;;;;;;5012051;28;20399;-46
2022/03/14 00:31:15;;;;;;;22.87;14.00;;;;;;;;;;5011782;28;20444;-49
2022/03/14 00:33:42;;;;;;;18.27;12.83;;;;;;;;;;5011941;28;21052;-50
2022/03/14 00:36:08;;;;;;;20.10;13.80;;;;;;;;;;5015703;28;20489;-48
2022/03/14 00:38:38;;;;;;;24.10;13.77;;;;;;;;;;5016182;28;20406;-47
2022/03/14 00:41:05;;;;;;;24.90;14.93;;;;;;;;;;5016128;28;20426;-48
2022/03/14 00:43:31;;;;;;;28.57;16.70;;;;;;;;;;5015942;28;21274;-47
2022/03/14 00:45:58;;;;;;;51.20;26.17;;;;;;;;;;5015989;28;20417;-47
2022/03/14 00:48:24;;;;;;;106.03;44.57;;;;;;;;;;5015884;28;20407;-47
2022/03/14 00:50:50;;;;;;;75.57;31.07;;;;;;;;;;5015569;28;20510;-47
2022/03/14 00:53:16;;;;;;;64.23;31.97;;;;;;;;;;5015701;28;20795;-47
2022/03/14 00:55:42;;;;;;;75.53;30.97;;;;;;;;;;5015730;28;20409;-47
2022/03/14 00:58:08;;;;;;;59.03;25.13;;;;;;;;;;5015785;28;20454;-47
2022/03/14 01:00:34;;;;;;;64.33;27.20;;;;;;;;;;5015470;28;21004;-47
2022/03/14 01:03:00;;;;;;;71.63;28.30;;;;;;;;;;5015450;28;20431;-47
2022/03/14 01:05:27;;;;;;;63.80;30.47;;;;;;;;;;5015575;28;20966;-47
2022/03/14 01:07:54;;;;;;;61.07;29.20;;;;;;;;;;5020456;28;20533;-47
2022/03/14 01:10:20;;;;;;;66.20;27.90;;;;;;;;;;5029982;28;20466;-49
2022/03/14 01:12:46;;;;;;;21.87;13.50;;;;;;;;;;5015322;28;20486;-49
2022/03/14 01:15:12;;;;;;;34.23;17.30;;;;;;;;;;5015512;28;20439;-47
2022/03/14 01:17:40;;;;;;;25.17;14.13;;;;;;;;;;5015512;28;20403;-47
2022/03/14 01:20:06;;;;;;;24.33;14.23;;;;;;;;;;5015116;28;20919;-47
2022/03/14 01:22:32;;;;;;;21.13;12.60;;;;;;;;;;5015275;28;20494;-46
2022/03/14 01:24:58;;;;;;;20.47;13.70;;;;;;;;;;5015214;28;20490;-47
2022/03/14 01:27:24;;;;;;;23.67;13.37;;;;;;;;;;5015220;28;20431;-46
2022/03/14 01:29:50;;;;;;;20.57;13.13;;;;;;;;;;5015035;28;20404;-46
2022/03/14 01:32:16;;;;;;;25.13;13.63;;;;;;;;;;5015044;28;20860;-47
2022/03/14 01:34:42;;;;;;;15.63;11.83;;;;;;;;;;5015017;28;20445;-47
2022/03/14 01:37:08;;;;;;;22.03;13.33;;;;;;;;;;5015025;28;20809;-47
2022/03/14 01:39:36;;;;;;;27.13;13.77;;;;;;;;;;5014790;28;20400;-46
2022/03/14 01:42:02;;;;;;;22.60;14.10;;;;;;;;;;5014930;28;20458;-47
2022/03/14 01:44:28;;;;;;;21.23;13.50;;;;;;;;;;5015108;28;20414;-47
2022/03/14 01:46:54;;;;;;;18.60;12.30;;;;;;;;;;5014798;28;20403;-47
2022/03/14 01:49:20;;;;;;;20.60;12.10;;;;;;;;;;5014822;28;20399;-50
2022/03/14 01:51:48;;;;;;;17.50;12.30;;;;;;;;;;4997290;28;20823;-46
2022/03/14 01:54:14;;;;;;;23.40;13.90;;;;;;;;;;5014742;28;20410;-47
2022/03/14 01:56:40;;;;;;;20.37;12.97;;;;;;;;;;5014868;28;20739;-46
2022/03/14 01:59:07;;;;;;;18.23;10.87;;;;;;;;;;5014718;28;20402;-46
2022/03/14 02:01:33;;;;;;;19.37;10.80;;;;;;;;;;5013987;28;20821;-48
2022/03/14 02:03:59;;;;;;;13.13;9.83;;;;;;;;;;5014034;28;20434;-46
2022/03/14 02:06:28;;;;;;;12.27;9.27;;;;;;;;;;5013698;28;20466;-49
2022/03/14 02:08:55;;;;;;;28.23;14.03;;;;;;;;;;5027291;28;20934;-47
2022/03/14 02:11:21;;;;;;;34.13;17.77;;;;;;;;;;5020666;28;20446;-46
2022/03/14 02:13:47;;;;;;;26.60;16.80;;;;;;;;;;5014362;28;20831;-47
2022/03/14 02:16:13;;;;;;;25.90;15.53;;;;;;;;;;5014464;28;20410;-47
2022/03/14 02:18:39;;;;;;;21.37;16.07;;;;;;;;;;5014369;28;20403;-47
2022/03/14 02:21:08;;;;;;;23.57;13.93;;;;;;;;;;5014016;28;20915;-48
2022/03/14 02:23:34;;;;;;;20.90;14.23;;;;;;;;;;5014388;28;20446;-47
2022/03/14 02:26:00;;;;;;;26.10;14.30;;;;;;;;;;5014261;28;20453;-46
2022/03/14 02:28:27;;;;;;;23.13;13.87;;;;;;;;;;5014128;28;20410;-46
2022/03/14 02:30:53;;;;;;;18.47;13.60;;;;;;;;;;5013795;28;20484;-50
2022/03/14 02:33:19;;;;;;;22.37;14.40;;;;;;;;;;5013800;28;20455;-46
2022/03/14 02:35:45;;;;;;;22.97;14.40;;;;;;;;;;5013824;28;20408;-50
2022/03/14 02:38:14;;;;;;;18.53;13.80;;;;;;;;;;5013975;28;20457;-47
2022/03/14 02:40:41;;;;;;;16.80;12.90;;;;;;;;;;5013926;28;20834;-51
2022/03/14 02:43:07;;;;;;;20.80;14.30;;;;;;;;;;5013881;28;20787;-51
2022/03/14 02:45:33;;;;;;;25.17;16.03;;;;;;;;;;5014054;28;20411;-51
2022/03/14 02:47:59;;;;;;;28.30;17.90;;;;;;;;;;5013722;28;20819;-52
2022/03/14 02:50:26;;;;;;;27.13;17.10;;;;;;;;;;5013361;28;20946;-52
2022/03/14 02:52:52;;;;;;;24.73;16.20;;;;;;;;;;5013724;28;20766;-52
2022/03/14 02:55:21;;;;;;;19.33;14.23;;;;;;;;;;5013628;28;20400;-52
2022/03/14 03:00:52;;;;;;;20.60;14.40;;;;;;;;;;5013913;28;20445;-51
2022/03/14 03:03:18;;;;;;;30.00;17.07;;;;;;;;;;5014147;28;20427;-52
2022/03/14 03:05:45;;;;;;;15.80;11.30;;;;;;;;;;5013990;28;20414;-51
2022/03/14 03:08:11;;;;;;;16.20;11.83;;;;;;;;;;5020987;28;20438;-52
2022/03/14 03:10:37;;;;;;;14.43;10.37;;;;;;;;;;5026234;28;20772;-51
2022/03/14 03:13:03;;;;;;;12.97;9.80;;;;;;;;;;5013267;28;20447;-52
2022/03/14 03:15:29;;;;;;;14.53;11.67;;;;;;;;;;4995591;28;20470;-51
2022/03/14 03:17:55;;;;;;;13.03;10.00;;;;;;;;;;5013129;28;20399;-51
2022/03/14 03:20:22;;;;;;;13.90;9.20;;;;;;;;;;5012753;28;20426;-51
2022/03/14 03:22:48;;;;;;;14.43;9.87;;;;;;;;;;5013260;28;20777;-50
2022/03/14 03:25:14;;;;;;;14.87;9.77;;;;;;;;;;5013265;28;20409;-50
2022/03/14 03:27:41;;;;;;;13.80;10.03;;;;;;;;;;5012089;28;20399;-51
2022/03/14 03:30:07;;;;;;;11.33;9.23;;;;;;;;;;5012545;28;20600;-50
2022/03/14 03:32:34;;;;;;;12.20;9.13;;;;;;;;;;5012675;28;20549;-50
2022/03/14 03:35:00;;;;;;;12.07;8.43;;;;;;;;;;5012777;28;20399;-50
2022/03/14 03:37:26;;;;;;;12.60;9.97;;;;;;;;;;5012917;28;20403;-51
2022/03/14 03:39:52;;;;;;;14.53;9.60;;;;;;;;;;5012610;28;20409;-49
2022/03/14 03:42:18;;;;;;;11.90;9.63;;;;;;;;;;5012543;28;20423;-48
2022/03/14 03:44:44;;;;;;;11.90;9.10;;;;;;;;;;5012588;28;20404;-49
2022/03/14 03:47:10;;;;;;;10.50;7.93;;;;;;;;;;5012518;28;20406;-48
2022/03/14 03:49:38;;;;;;;12.53;8.23;;;;;;;;;;5012670;28;20412;-49
2022/03/14 03:52:04;;;;;;;10.33;9.03;;;;;;;;;;5012390;28;20427;-50
2022/03/14 03:54:30;;;;;;;12.17;9.53;;;;;;;;;;5012581;28;20402;-50
2022/03/14 03:56:56;;;;;;;12.87;9.47;;;;;;;;;;5012579;28;20462;-49
2022/03/14 03:59:22;;;;;;;11.47;8.30;;;;;;;;;;5012190;28;20402;-49
2022/03/14 04:01:48;;;;;;;20.47;9.33;;;;;;;;;;5012078;28;20431;-48
2022/03/14 04:04:14;;;;;;;9.57;8.30;;;;;;;;;;5012322;28;20913;-48
2022/03/14 04:06:42;;;;;;;10.67;8.27;;;;;;;;;;5012323;28;20453;-49
2022/03/14 04:09:08;;;;;;;11.20;8.60;;;;;;;;;;5011412;28;20791;-48
2022/03/14 04:11:41;;;;;;;11.20;8.13;;;;;;;;;;5012077;28;20849;-50
2022/03/14 04:14:07;;;;;;;16.20;9.77;;;;;;;;;;5012195;28;20456;-51
2022/03/14 04:16:34;;;;;;;14.93;10.20;;;;;;;;;;5012098;28;20480;-50
2022/03/14 04:19:00;;;;;;;15.47;10.17;;;;;;;;;;5012168;28;20797;-48
2022/03/14 04:21:26;;;;;;;21.20;10.23;;;;;;;;;;5011970;28;20916;-50
2022/03/14 04:23:52;;;;;;;18.60;10.30;;;;;;;;;;5012445;28;20405;-50
2022/03/14 04:26:18;;;;;;;16.33;11.47;;;;;;;;;;5012017;28;20487;-50
2022/03/14 04:28:44;;;;;;;13.13;9.17;;;;;;;;;;5012091;28;20410;-51
2022/03/14 04:31:10;;;;;;;14.60;9.40;;;;;;;;;;5011640;28;20941;-50
2022/03/14 04:33:36;;;;;;;16.93;9.80;;;;;;;;;;5012111;28;20992;-50
2022/03/14 04:36:04;;;;;;;16.47;9.77;;;;;;;;;;5012011;28;20450;-50
2022/03/14 04:38:30;;;;;;;12.40;8.87;;;;;;;;;;5012012;28;20401;-49
2022/03/14 04:40:56;;;;;;;11.47;8.50;;;;;;;;;;5011567;28;20425;-48
2022/03/14 04:43:24;;;;;;;11.30;8.70;;;;;;;;;;5011906;28;20425;-49
2022/03/14 04:45:50;;;;;;;12.97;8.07;;;;;;;;;;5011826;28;20774;-49
2022/03/14 04:48:17;;;;;;;10.07;7.53;;;;;;;;;;5011835;28;20419;-49
2022/03/14 04:50:43;;;;;;;14.87;9.13;;;;;;;;;;5011606;28;20508;-50
2022/03/14 04:53:10;;;;;;;11.10;7.57;;;;;;;;;;5012089;28;20949;-50
2022/03/14 04:55:36;;;;;;;10.23;6.83;;;;;;;;;;5011671;28;20417;-49
2022/03/14 04:58:06;;;;;;;10.67;7.40;;;;;;;;;;5011765;28;20434;-48
2022/03/14 05:00:34;;;;;;;8.03;6.80;;;;;;;;;;5011408;28;20919;-50
2022/03/14 05:03:04;;;;;;;8.50;6.87;;;;;;;;;;5011683;28;20431;-47
2022/03/14 05:05:30;;;;;;;8.93;6.40;;;;;;;;;;5011772;28;20408;-48
2022/03/14 05:07:56;;;;;;;6.90;6.20;;;;;;;;;;5011703;28;20407;-47
2022/03/14 05:10:23;;;;;;;10.27;7.67;;;;;;;;;;5011287;28;20471;-47
2022/03/14 05:12:49;;;;;;;8.07;6.37;;;;;;;;;;5012101;28;20460;-49
2022/03/14 05:15:18;;;;;;;12.70;7.10;;;;;;;;;;5011694;28;20401;-50
2022/03/14 05:17:44;;;;;;;10.70;6.87;;;;;;;;;;5011537;28;20410;-49
2022/03/14 05:20:10;;;;;;;7.77;5.83;;;;;;;;;;5011683;28;20399;-50
2022/03/14 05:22:48;;;;;;;7.93;6.17;;;;;;;;;;5015118;28;20409;-49
2022/03/14 05:25:15;;;;;;;10.13;6.83;;;;;;;;;;5015238;28;20418;-49
2022/03/14 05:27:41;;;;;;;7.57;6.50;;;;;;;;;;5015086;28;20926;-49
2022/03/14 05:30:08;;;;;;;9.57;7.17;;;;;;;;;;5014801;28;20403;-48
2022/03/14 05:32:34;;;;;;;11.57;7.47;;;;;;;;;;5014950;28;20460;-50
2022/03/14 05:35:00;;;;;;;10.07;6.40;;;;;;;;;;4997357;28;20415;-48
2022/03/14 05:37:26;;;;;;;9.43;6.80;;;;;;;;;;5014915;28;20426;-49
2022/03/14 05:39:52;;;;;;;9.47;7.50;;;;;;;;;;5014636;28;20416;-50
2022/03/14 05:42:18;;;;;;;10.90;6.60;;;;;;;;;;5014831;28;20440;-49
2022/03/14 05:44:45;;;;;;;6.47;5.87;;;;;;;;;;5014848;28;20419;-49
2022/03/14 05:47:11;;;;;;;7.50;5.67;;;;;;;;;;5014816;28;20410;-50
2022/03/14 05:49:37;;;;;;;8.23;5.33;;;;;;;;;;5014449;28;20417;-49
2022/03/14 05:52:03;;;;;;;7.60;5.50;;;;;;;;;;5014959;28;20435;-50
2022/03/14 05:54:29;;;;;;;8.37;5.90;;;;;;;;;;5014610;28;20492;-50
2022/03/14 05:56:54;;;;;;;7.73;5.50;;;;;;;;;;5013450;28;20518;-48
2022/03/14 05:59:21;;;;;;;7.97;6.70;;;;;;;;;;5013711;28;20437;-48
2022/03/14 06:01:48;;;;;;;14.90;6.50;;;;;;;;;;5013790;28;20465;-48
2022/03/14 06:04:15;;;;;;;9.83;6.43;;;;;;;;;;5018996;28;20480;-50
2022/03/14 06:06:41;;;;;;;9.10;6.87;;;;;;;;;;5012408;28;20434;-49
2022/03/14 06:09:06;;;;;;;9.27;6.80;;;;;;;;;;5012375;28;20411;-50
2022/03/14 06:11:32;;;;;;;10.13;7.60;;;;;;;;;;5011110;28;20819;-49
2022/03/14 06:13:58;;;;;;;12.87;9.40;;;;;;;;;;5005328;28;20820;-48
2022/03/14 06:16:25;;;;;;;11.80;8.33;;;;;;;;;;5009575;28;20415;-51
2022/03/14 06:18:51;;;;;;;14.43;9.37;;;;;;;;;;5013361;28;20411;-50
2022/03/14 06:21:17;;;;;;;13.23;9.30;;;;;;;;;;4995930;28;20449;-49
2022/03/14 06:23:43;;;;;;;15.17;10.27;;;;;;;;;;5013900;28;20775;-50
2022/03/14 06:26:10;;;;;;;16.00;10.60;;;;;;;;;;5013852;28;20400;-49
2022/03/14 06:28:36;;;;;;;14.07;10.73;;;;;;;;;;5013399;28;20414;-49
2022/03/14 06:31:02;;;;;;;13.50;10.40;;;;;;;;;;5012986;28;20796;-49
2022/03/14 06:33:28;;;;;;;15.57;10.57;;;;;;;;;;5012026;28;20954;-50
2022/03/14 06:35:54;;;;;;;14.37;10.57;;;;;;;;;;5002289;28;20415;-48
2022/03/14 06:38:20;;;;;;;16.23;11.23;;;;;;;;;;4990405;28;20415;-48
2022/03/14 06:40:47;;;;;;;13.40;10.90;;;;;;;;;;4993204;28;20420;-47
2022/03/14 06:43:13;;;;;;;15.60;11.33;;;;;;;;;;4993315;28;20432;-46
2022/03/14 06:45:39;;;;;;;18.77;11.90;;;;;;;;;;4993208;28;20411;-50
2022/03/14 06:48:06;;;;;;;17.13;11.40;;;;;;;;;;4993122;28;20410;-50
2022/03/14 06:50:33;;;;;;;15.80;11.60;;;;;;;;;;4993379;28;20511;-48
2022/03/14 06:53:00;;;;;;;12.77;9.63;;;;;;;;;;4993614;28;20478;-46
2022/03/14 06:55:26;;;;;;;21.63;11.53;;;;;;;;;;4993671;28;20771;-49
2022/03/14 06:57:52;;;;;;;12.20;10.10;;;;;;;;;;4993177;28;20905;-47
2022/03/14 07:00:18;;;;;;;14.00;11.33;;;;;;;;;;4993384;28;20418;-47
2022/03/14 07:02:44;;;;;;;16.70;12.13;;;;;;;;;;4993564;28;20786;-46
2022/03/14 07:05:17;;;;;;;15.40;11.00;;;;;;;;;;4993921;28;20784;-46
2022/03/14 07:07:45;;;;;;;16.30;11.87;;;;;;;;;;4993051;28;20408;-47
2022/03/14 07:10:11;;;;;;;13.23;11.60;;;;;;;;;;4993079;28;20403;-47
2022/03/14 07:12:44;;;;;;;15.57;11.97;;;;;;;;;;4993724;28;20565;-48
2022/03/14 07:15:10;;;;;;;19.33;12.13;;;;;;;;;;4995618;28;20417;-49
2022/03/14 07:17:36;;;;;;;14.53;11.30;;;;;;;;;;4997076;28;20410;-50
2022/03/14 07:20:02;;;;;;;16.93;12.20;;;;;;;;;;5010887;28;20776;-49
2022/03/14 07:22:30;;;;;;;19.37;12.10;;;;;;;;;;5001212;28;20780;-46
2022/03/14 07:24:57;;;;;;;18.20;12.73;;;;;;;;;;4991365;28;20443;-49
2022/03/14 07:27:23;;;;;;;15.07;12.00;;;;;;;;;;4990910;28;20402;-47
2022/03/14 07:29:49;;;;;;;18.97;12.80;;;;;;;;;;4990846;28;20498;-47
2022/03/14 07:32:15;;;;;;;15.70;11.83;;;;;;;;;;4992165;28;20450;-47
2022/03/14 07:34:41;;;;;;;14.07;10.80;;;;;;;;;;5003436;28;20469;-48
2022/03/14 07:37:07;;;;;;;13.33;10.03;;;;;;;;;;5012598;28;20407;-47
2022/03/14 07:39:34;;;;;;;14.03;11.00;;;;;;;;;;5012379;28;20468;-46
2022/03/14 07:41:59;;;;;;;12.80;9.87;;;;;;;;;;5012146;28;20800;-46
2022/03/14 07:44:25;;;;;;;13.93;9.50;;;;;;;;;;5012241;28;20482;-47
2022/03/14 07:46:51;;;;;;;13.10;9.00;;;;;;;;;;4996099;28;20948;-48
2022/03/14 07:49:17;;;;;;;11.43;8.97;;;;;;;;;;4992329;28;20490;-47
2022/03/14 07:51:43;;;;;;;11.93;8.83;;;;;;;;;;5010252;28;20931;-50
2022/03/14 07:54:09;;;;;;;12.07;8.90;;;;;;;;;;5007141;28;20517;-46
2022/03/14 07:56:35;;;;;;;10.90;7.97;;;;;;;;;;4992447;28;20459;-46
2022/03/14 07:59:03;;;;;;;9.77;7.27;;;;;;;;;;4992364;28;20398;-49
2022/03/14 08:01:29;;;;;;;11.20;7.80;;;;;;;;;;4992234;28;20940;-46
2022/03/14 08:03:55;;;;;;;7.80;6.53;;;;;;;;;;4992281;28;20509;-49
2022/03/14 08:06:23;;;;;;;12.63;8.10;;;;;;;;;;4992093;28;20800;-53
2022/03/14 08:08:50;;;;;;;7.10;6.23;;;;;;;;;;5011321;28;20930;-47
2022/03/14 08:11:16;;;;;;;13.57;8.20;;;;;;;;;;5011630;28;20487;-48
2022/03/14 08:13:42;;;;;;;8.30;7.10;;;;;;;;;;5011859;28;21022;-47
2022/03/14 08:16:08;;;;;;;9.73;7.27;;;;;;;;;;5011948;28;20414;-47
2022/03/14 08:18:34;;;;;;;9.07;6.80;;;;;;;;;;4999142;28;20793;-48
2022/03/14 08:21:00;;;;;;;10.00;6.60;;;;;;;;;;4991934;28;20499;-46
2022/03/14 08:23:26;;;;;;;10.00;6.47;;;;;;;;;;4991923;28;20996;-47
2022/03/14 08:25:53;;;;;;;7.30;6.60;;;;;;;;;;4992075;28;20494;-49
2022/03/14 08:28:19;;;;;;;8.03;7.10;;;;;;;;;;4996949;28;20768;-46
2022/03/14 08:30:48;;;;;;;10.17;6.33;;;;;;;;;;4996399;28;20433;-47
2022/03/14 08:33:15;;;;;;;9.77;7.03;;;;;;;;;;5000558;28;20551;-49
2022/03/14 08:35:41;;;;;;;8.40;6.70;;;;;;;;;;4998435;28;20444;-47
2022/03/14 08:38:07;;;;;;;11.87;7.17;;;;;;;;;;4991270;28;20435;-46
2022/03/14 08:40:33;;;;;;;9.63;7.30;;;;;;;;;;4991282;28;20424;-48
2022/03/14 08:42:59;;;;;;;11.30;7.37;;;;;;;;;;4991832;28;20428;-48
2022/03/14 08:45:25;;;;;;;7.47;6.17;;;;;;;;;;4996383;28;20419;-48
2022/03/14 08:47:52;;;;;;;8.93;6.63;;;;;;;;;;5011285;28;20454;-47
2022/03/14 08:50:18;;;;;;;8.60;6.73;;;;;;;;;;5008789;28;20441;-46
2022/03/14 08:52:48;;;;;;;10.10;6.03;;;;;;;;;;4993705;28;20471;-48
2022/03/14 08:55:15;;;;;;;11.20;7.90;;;;;;;;;;5013357;28;20939;-48
2022/03/14 08:57:41;;;;;;;9.83;6.80;;;;;;;;;;4997592;28;20915;-48
2022/03/14 09:00:08;;;;;;;10.63;6.40;;;;;;;;;;5007450;28;20790;-48
2022/03/14 09:02:34;;;;;;;10.53;6.80;;;;;;;;;;5006358;28;20423;-49
2022/03/14 09:05:00;;;;;;;7.37;6.10;;;;;;;;;;5008292;28;20410;-50
2022/03/14 09:07:27;;;;;;;8.57;5.97;;;;;;;;;;5003088;28;20466;-49
2022/03/14 09:09:54;;;;;;;8.87;6.10;;;;;;;;;;5014674;28;20407;-49
2022/03/14 09:12:20;;;;;;;9.77;6.77;;;;;;;;;;5015060;28;20423;-49
2022/03/14 09:14:46;;;;;;;9.50;6.60;;;;;;;;;;5015107;28;20391;-48
2022/03/14 09:17:13;;;;;;;8.90;7.03;;;;;;;;;;5015112;28;20410;-46
2022/03/14 09:19:40;;;;;;;13.80;7.03;;;;;;;;;;5014742;28;20391;-45
2022/03/14 09:22:08;;;;;;;7.63;6.87;;;;;;;;;;5014976;28;20411;-48
2022/03/14 09:24:36;;;;;;;11.73;7.10;;;;;;;;;;5015234;28;20891;-49
2022/03/14 09:27:02;;;;;;;15.23;6.90;;;;;;;;;;5014944;28;20405;-49
2022/03/14 09:29:28;;;;;;;7.80;6.10;;;;;;;;;;5014380;28;20915;-49
2022/03/14 09:31:55;;;;;;;9.50;5.47;;;;;;;;;;5014589;28;20423;-48
2022/03/14 09:34:21;;;;;;;10.07;6.33;;;;;;;;;;5014668;28;20462;-46
2022/03/14 09:36:48;;;;;;;7.20;6.07;;;;;;;;;;5013373;28;20965;-46
2022/03/14 09:39:14;;;;;;;9.80;5.87;;;;;;;;;;5014577;28;20457;-47
2022/03/14 09:41:41;;;;;;;10.97;6.53;;;;;;;;;;5014319;28;20434;-48
2022/03/14 09:44:09;;;;;;;7.20;6.60;;;;;;;;;;5011654;28;20785;-49
2022/03/14 09:46:36;;;;;;;8.97;6.90;;;;;;;;;;5014173;28;20494;-49
2022/03/14 09:49:02;;;;;;;8.53;6.50;;;;;;;;;;5014356;28;20410;-50
2022/03/14 09:51:28;;;;;;;12.20;6.83;;;;;;;;;;5013431;28;20489;-48
2022/03/14 09:53:55;;;;;;;9.47;6.30;;;;;;;;;;5013922;28;20458;-48
2022/03/14 09:56:21;;;;;;;7.20;6.47;;;;;;;;;;5014081;28;20767;-49
2022/03/14 09:58:47;;;;;;;13.33;7.20;;;;;;;;;;5014164;28;20396;-47
2022/03/14 10:01:13;;;;;;;9.20;7.67;;;;;;;;;;5013686;28;20930;-49
2022/03/14 10:03:39;;;;;;;6.90;5.87;;;;;;;;;;5014036;28;20423;-49
2022/03/14 10:06:05;;;;;;;14.53;6.47;;;;;;;;;;5013630;28;20410;-50
2022/03/14 10:08:32;;;;;;;10.17;7.07;;;;;;;;;;5012120;28;20903;-48
2022/03/14 10:10:58;;;;;;;9.03;7.10;;;;;;;;;;5013509;28;20517;-49
2022/03/14 10:13:25;;;;;;;9.67;5.73;;;;;;;;;;5007519;28;20499;-48
2022/03/14 10:15:52;;;;;;;9.60;5.83;;;;;;;;;;5001768;28;20401;-49
2022/03/14 10:18:18;;;;;;;9.60;5.90;;;;;;;;;;4995100;28;20495;-48
2022/03/14 10:20:57;;;;;;;13.00;6.20;;;;;;;;;;4993540;28;20436;-48
2022/03/14 10:23:46;;;;;;;9.63;6.00;;;;;;;;;;5006805;28;20422;-46
2022/03/14 10:26:12;;;;;;;7.50;6.10;;;;;;;;;;5013746;28;20899;-48
2022/03/14 10:28:38;;;;;;;8.77;5.97;;;;;;;;;;5012353;28;20900;-46
2022/03/14 10:31:05;;;;;;;7.70;5.40;;;;;;;;;;5017377;28;20490;-48
2022/03/14 10:33:32;;;;;;;7.33;5.53;;;;;;;;;;5009453;28;20457;-49
2022/03/14 10:35:58;;;;;;;11.17;6.00;;;;;;;;;;5018559;28;20415;-49
2022/03/14 10:38:25;;;;;;;8.63;5.93;;;;;;;;;;5021031;28;20421;-49
2022/03/14 10:40:51;;;;;;;6.83;6.13;;;;;;;;;;4993360;28;20460;-46
2022/03/14 10:43:37;;;;;;;6.57;5.80;;;;;;;;;;4996269;28;20420;-49
2022/03/14 10:46:04;;;;;;;7.77;6.10;;;;;;;;;;5003012;28;20423;-48
2022/03/14 10:48:35;;;;;;;7.20;5.80;;;;;;;;;;5007670;28;20408;-50
2022/03/14 10:51:05;;;;;;;11.27;5.30;;;;;;;;;;5006944;28;20439;-48
2022/03/14 10:53:31;;;;;;;7.17;6.00;;;;;;;;;;5006834;28;20447;-50
2022/03/14 10:56:00;;;;;;;8.27;5.50;;;;;;;;;;5002396;28;20404;-47
2022/03/14 10:58:30;;;;;;;8.40;5.83;;;;;;;;;;5002192;28;20434;-47
2022/03/14 11:00:57;;;;;;;10.97;5.57;;;;;;;;;;5009720;28;20431;-47
2022/03/14 11:03:27;;;;;;;9.43;5.70;;;;;;;;;;5015672;28;20784;-47
2022/03/14 11:05:54;;;;;;;8.03;5.50;;;;;;;;;;5027364;28;20408;-47
2022/03/14 11:08:53;;;;;;;7.47;5.40;;;;;;;;;;5012929;28;20406;-49
2022/03/14 11:11:22;;;;;;;7.87;5.80;;;;;;;;;;4963558;28;20918;-49
2022/03/14 11:13:49;;;;;;;7.63;4.90;;;;;;;;;;4999304;28;20459;-50
2022/03/14 11:16:19;;;;;;;6.57;5.30;;;;;;;;;;4996928;28;20419;-50
2022/03/14 11:18:46;;;;;;;7.27;5.13;;;;;;;;;;5007793;28;20439;-49
2022/03/14 11:21:16;;;;;;;7.13;4.70;;;;;;;;;;5012409;28;20426;-48
2022/03/14 11:23:47;;;;;;;8.23;5.63;;;;;;;;;;5012272;28;20915;-49
2022/03/14 11:26:19;;;;;;;9.73;6.30;;;;;;;;;;5012832;28;20519;-49
2022/03/14 11:28:46;;;;;;;5.43;4.80;;;;;;;;;;5007564;28;20422;-46
2022/03/14 11:31:12;;;;;;;6.70;4.70;;;;;;;;;;5007798;28;20472;-49
2022/03/14 11:33:38;;;;;;;9.50;5.20;;;;;;;;;;5011373;28;20499;-48
2022/03/14 11:36:06;;;;;;;5.77;5.10;;;;;;;;;;5010279;28;20400;-51
2022/03/14 11:38:32;;;;;;;6.67;5.50;;;;;;;;;;5020961;28;20446;-49
2022/03/14 11:40:59;;;;;;;6.30;4.93;;;;;;;;;;5009231;28;20905;-50
2022/03/14 11:43:26;;;;;;;5.50;4.97;;;;;;;;;;5012653;28;20415;-50
2022/03/14 11:45:52;;;;;;;11.07;5.37;;;;;;;;;;5012585;28;20928;-48
2022/03/14 11:48:19;;;;;;;13.03;5.03;;;;;;;;;;4998384;28;20421;-48
2022/03/14 11:50:45;;;;;;;7.70;5.47;;;;;;;;;;5011931;28;20850;-50
2022/03/14 11:53:19;;;;;;;8.37;5.33;;;;;;;;;;5012360;28;20480;-48
2022/03/14 11:55:52;;;;;;;8.03;5.53;;;;;;;;;;5012192;28;20407;-48
2022/03/14 11:58:51;;;;;;;8.10;5.60;;;;;;;;;;5011553;28;20862;-49
2022/03/14 12:01:21;;;;;;;9.03;5.40;;;;;;;;;;4949058;28;20500;-48
2022/03/14 12:03:48;;;;;;;7.50;5.50;;;;;;;;;;4992245;28;20426;-48
2022/03/14 12:06:14;;;;;;;8.67;5.43;;;;;;;;;;4992432;28;20388;-50
2022/03/14 12:08:47;;;;;;;7.40;5.70;;;;;;;;;;4992668;28;20917;-48
2022/03/14 12:11:37;;;;;;;9.33;6.10;;;;;;;;;;4992112;28;20403;-48
2022/03/14 12:14:05;;;;;;;12.53;4.80;;;;;;;;;;4992731;28;20955;-47
2022/03/14 12:16:40;;;;;;;13.07;5.27;;;;;;;;;;4992074;28;20432;-47
2022/03/14 12:19:25;;;;;;;10.30;5.80;;;;;;;;;;4991321;28;20426;-48
2022/03/14 12:21:54;;;;;;;7.53;5.00;;;;;;;;;;4992978;28;20386;-47
2022/03/14 12:24:21;;;;;;;9.80;5.20;;;;;;;;;;5005407;28;20444;-47
2022/03/14 12:26:47;;;;;;;6.30;4.67;;;;;;;;;;5012267;28;20411;-47
2022/03/14 12:29:31;;;;;;;5.90;4.77;;;;;;;;;;5011828;28;20402;-49
2022/03/14 12:32:16;;;;;;;6.00;5.10;;;;;;;;;;5001916;28;20435;-48
2022/03/14 12:34:42;;;;;;;7.17;4.87;;;;;;;;;;5004932;28;20966;-48
2022/03/14 12:37:24;;;;;;;8.53;4.40;;;;;;;;;;5011846;28;20407;-48
2022/03/14 12:39:50;;;;;;;5.77;4.60;;;;;;;;;;5011696;28;20800;-48
2022/03/14 12:42:23;;;;;;;7.80;4.00;;;;;;;;;;5011339;28;20422;-50
2022/03/14 12:45:09;;;;;;;8.40;4.50;;;;;;;;;;5011754;28;20498;-50
2022/03/14 12:47:40;;;;;;;5.77;4.00;;;;;;;;;;5012418;28;20400;-46
2022/03/14 12:50:07;;;;;;;10.63;4.80;;;;;;;;;;5011763;28;20416;-47
2022/03/14 12:52:52;;;;;;;5.33;4.50;;;;;;;;;;5012122;28;20926;-47
2022/03/14 12:55:19;;;;;;;9.47;4.03;;;;;;;;;;5012056;28;20442;-47
2022/03/14 12:57:51;;;;;;;6.30;3.83;;;;;;;;;;5012302;28;20380;-47
2022/03/14 13:00:17;;;;;;;11.47;4.77;;;;;;;;;;5012062;28;20756;-47
2022/03/14 13:02:43;;;;;;;9.53;4.60;;;;;;;;;;5011660;28;20428;-49
2022/03/14 13:05:09;;;;;;;11.13;4.20;;;;;;;;;;5011353;28;20441;-48
2022/03/14 13:07:35;;;;;;;5.43;4.40;;;;;;;;;;5011883;28;20377;-50
2022/03/14 13:10:02;;;;;;;5.30;4.50;;;;;;;;;;5011375;28;20408;-49
2022/03/14 13:12:29;;;;;;;5.07;4.40;;;;;;;;;;5011378;28;20441;-50
2022/03/14 13:15:06;;;;;;;7.20;3.80;;;;;;;;;;5011441;28;20455;-49
2022/03/14 13:17:32;;;;;;;4.43;3.27;;;;;;;;;;5010202;28;20447;-50
2022/03/14 13:19:58;;;;;;;7.10;2.77;;;;;;;;;;5010712;28;20399;-48
2022/03/14 13:22:24;;;;;;;4.73;4.27;;;;;;;;;;5002379;28;20979;-47
2022/03/14 13:24:50;;;;;;;5.60;3.97;;;;;;;;;;5002416;28;20774;-47
2022/03/14 13:27:24;;;;;;;7.40;3.50;;;;;;;;;;5001876;28;20418;-48
2022/03/14 13:29:50;;;;;;;8.27;4.93;;;;;;;;;;5001674;28;20889;-49
2022/03/14 13:32:18;;;;;;;6.07;4.50;;;;;;;;;;5006996;28;20436;-49
2022/03/14 13:34:45;;;;;;;5.70;4.70;;;;;;;;;;5011037;28;20426;-48
2022/03/14 13:37:11;;;;;;;4.67;4.00;;;;;;;;;;5010843;28;20408;-48
2022/03/14 13:39:38;;;;;;;7.57;4.00;;;;;;;;;;5003146;28;20419;-48
2022/03/14 13:42:05;;;;;;;6.73;4.50;;;;;;;;;;5002857;28;20434;-48
2022/03/14 13:44:31;;;;;;;5.33;4.83;;;;;;;;;;5013121;28;20474;-49
2022/03/14 13:46:58;;;;;;;17.30;5.23;;;;;;;;;;5006022;28;20459;-49
2022/03/14 13:49:24;;;;;;;8.27;5.50;;;;;;;;;;5007862;28;20981;-50
2022/03/14 13:51:53;;;;;;;11.03;5.33;;;;;;;;;;5014337;28;20427;-49
2022/03/14 13:54:22;;;;;;;7.73;5.73;;;;;;;;;;5014483;28;20470;-49
2022/03/14 13:56:49;;;;;;;7.23;5.73;;;;;;;;;;5014288;28;20443;-49
2022/03/14 13:59:26;;;;;;;9.70;5.90;;;;;;;;;;5014315;28;20411;-46
2022/03/14 14:01:53;;;;;;;13.37;6.90;;;;;;;;;;5014237;28;20517;-50
2022/03/14 14:04:24;;;;;;;12.67;6.53;;;;;;;;;;5014158;28;20427;-51
2022/03/14 14:06:51;;;;;;;12.13;6.43;;;;;;;;;;5014184;28;20400;-49
2022/03/14 14:09:22;;;;;;;11.03;6.20;;;;;;;;;;5029562;28;20430;-51
2022/03/14 14:11:58;;;;;;;10.20;5.93;;;;;;;;;;5014799;28;20427;-49
2022/03/14 14:14:25;;;;;;;8.60;5.00;;;;;;;;;;4999002;28;20472;-47
2022/03/14 14:16:52;;;;;;;7.10;5.60;;;;;;;;;;5014746;28;20924;-47
2022/03/14 14:19:18;;;;;;;9.37;5.93;;;;;;;;;;5014494;28;20409;-47
2022/03/14 14:21:56;;;;;;;7.73;6.30;;;;;;;;;;5014532;28;20761;-46
2022/03/14 14:24:23;;;;;;;9.77;6.30;;;;;;;;;;5013869;28;20775;-46
2022/03/14 14:26:49;;;;;;;11.53;7.20;;;;;;;;;;5013129;28;20396;-50
2022/03/14 14:29:34;;;;;;;10.03;7.90;;;;;;;;;;5004456;28;20402;-50
2022/03/14 14:32:13;;;;;;;11.63;8.00;;;;;;;;;;5010940;28;20439;-47
2022/03/14 14:34:39;;;;;;;14.10;6.80;;;;;;;;;;5006070;28;20463;-50
2022/03/14 14:37:05;;;;;;;10.10;7.67;;;;;;;;;;5011252;28;20469;-51